sensor_id;sensor_type;location;lat;lon;timestamp;P1;durP1;ratioP1;P2;durP2;ratioP2
26536;SDS011;14204;51.262;5.488;2023-04-03T00:01:12;5.88;;;4.18;;
26536;SDS011;14204;51.262;5.488;2023-04-03T00:03:39;5.20;;;3.92;;
26536;SDS011;14204;51.262;5.488;2023-04-03T00:06:06;6.53;;;4.40;;
26536;SDS011;14204;51.262;5.488;2023-04-03T00:08:34;5.18;;;4.07;;
26536;SDS011;14204;51.262;5.488;2023-04-03T00:11:00;6.40;;;4.25;;
26536;SDS011;14204;51.262;5.488;2023-04-03T00:13:26;6.93;;;4.80;;
26536;SDS011;14204;51.262;5.488;2023-04-03T00:15:52;9.07;;;6.40;;
26536;SDS011;14204;51.262;5.488;2023-04-03T00:18:18;10.55;;;5.93;;
26536;SDS011;14204;51.262;5.488;2023-04-03T00:20:44;6.63;;;5.22;;
26536;SDS011;14204;51.262;5.488;2023-04-03T00:23:09;7.43;;;6.15;;
26536;SDS011;14204;51.262;5.488;2023-04-03T00:25:35;7.13;;;6.18;;
26536;SDS011;14204;51.262;5.488;2023-04-03T00:28:01;10.13;;;5.75;;
26536;SDS011;14204;51.262;5.488;2023-04-03T00:30:27;8.75;;;5.20;;
26536;SDS011;14204;51.262;5.488;2023-04-03T00:32:53;8.70;;;5.35;;
26536;SDS011;14204;51.262;5.488;2023-04-03T00:35:20;6.80;;;5.53;;
26536;SDS011;14204;51.262;5.488;2023-04-03T00:37:46;6.05;;;4.85;;
26536;SDS011;14204;51.262;5.488;2023-04-03T00:40:13;9.98;;;5.65;;
26536;SDS011;14204;51.262;5.488;2023-04-03T00:42:40;5.82;;;4.97;;
26536;SDS011;14204;51.262;5.488;2023-04-03T00:47:35;8.95;;;6.03;;
26536;SDS011;14204;51.262;5.488;2023-04-03T00:50:03;10.18;;;6.85;;
26536;SDS011;14204;51.262;5.488;2023-04-03T00:52:29;8.90;;;6.60;;
26536;SDS011;14204;51.262;5.488;2023-04-03T00:54:57;11.57;;;8.35;;
26536;SDS011;14204;51.262;5.488;2023-04-03T00:57:26;13.05;;;8.82;;
26536;SDS011;14204;51.262;5.488;2023-04-03T00:59:55;13.50;;;9.27;;
26536;SDS011;14204;51.262;5.488;2023-04-03T01:02:26;11.45;;;8.02;;
26536;SDS011;14204;51.262;5.488;2023-04-03T01:04:52;12.75;;;7.07;;
26536;SDS011;14204;51.262;5.488;2023-04-03T01:07:18;13.60;;;7.43;;
26536;SDS011;14204;51.262;5.488;2023-04-03T01:09:56;9.27;;;7.03;;
26536;SDS011;14204;51.262;5.488;2023-04-03T01:12:25;10.90;;;7.50;;
26536;SDS011;14204;51.262;5.488;2023-04-03T01:14:58;10.65;;;7.28;;
26536;SDS011;14204;51.262;5.488;2023-04-03T01:17:26;9.43;;;6.72;;
26536;SDS011;14204;51.262;5.488;2023-04-03T01:19:57;9.90;;;6.30;;
26536;SDS011;14204;51.262;5.488;2023-04-03T01:22:59;11.50;;;7.38;;
26536;SDS011;14204;51.262;5.488;2023-04-03T01:25:35;9.77;;;7.28;;
26536;SDS011;14204;51.262;5.488;2023-04-03T01:28:07;10.73;;;7.68;;
26536;SDS011;14204;51.262;5.488;2023-04-03T01:33:33;12.75;;;8.27;;
26536;SDS011;14204;51.262;5.488;2023-04-03T01:36:00;14.77;;;8.70;;
26536;SDS011;14204;51.262;5.488;2023-04-03T01:38:25;11.60;;;8.23;;
26536;SDS011;14204;51.262;5.488;2023-04-03T01:40:51;10.25;;;8.05;;
26536;SDS011;14204;51.262;5.488;2023-04-03T01:43:17;14.35;;;8.88;;
26536;SDS011;14204;51.262;5.488;2023-04-03T01:45:42;8.80;;;6.03;;
26536;SDS011;14204;51.262;5.488;2023-04-03T01:48:08;12.77;;;8.25;;
26536;SDS011;14204;51.262;5.488;2023-04-03T01:50:34;9.80;;;7.50;;
26536;SDS011;14204;51.262;5.488;2023-04-03T01:52:59;13.45;;;7.95;;
26536;SDS011;14204;51.262;5.488;2023-04-03T01:55:25;12.05;;;8.45;;
26536;SDS011;14204;51.262;5.488;2023-04-03T01:57:50;12.10;;;8.63;;
26536;SDS011;14204;51.262;5.488;2023-04-03T02:00:16;10.70;;;8.70;;
26536;SDS011;14204;51.262;5.488;2023-04-03T02:02:42;16.30;;;9.18;;
26536;SDS011;14204;51.262;5.488;2023-04-03T02:05:08;16.45;;;9.10;;
26536;SDS011;14204;51.262;5.488;2023-04-03T02:07:33;16.02;;;9.02;;
26536;SDS011;14204;51.262;5.488;2023-04-03T02:09:59;12.30;;;8.88;;
26536;SDS011;14204;51.262;5.488;2023-04-03T02:12:25;13.82;;;9.63;;
26536;SDS011;14204;51.262;5.488;2023-04-03T02:14:50;10.00;;;8.38;;
26536;SDS011;14204;51.262;5.488;2023-04-03T02:17:16;13.00;;;9.02;;
26536;SDS011;14204;51.262;5.488;2023-04-03T02:19:42;17.27;;;8.13;;
26536;SDS011;14204;51.262;5.488;2023-04-03T02:22:09;11.40;;;8.27;;
26536;SDS011;14204;51.262;5.488;2023-04-03T02:24:34;13.18;;;9.48;;
26536;SDS011;14204;51.262;5.488;2023-04-03T02:27:00;14.88;;;9.15;;
26536;SDS011;14204;51.262;5.488;2023-04-03T02:29:26;13.52;;;9.27;;
26536;SDS011;14204;51.262;5.488;2023-04-03T02:31:51;11.95;;;9.55;;
26536;SDS011;14204;51.262;5.488;2023-04-03T02:34:17;12.15;;;9.10;;
26536;SDS011;14204;51.262;5.488;2023-04-03T02:36:42;11.70;;;8.85;;
26536;SDS011;14204;51.262;5.488;2023-04-03T02:39:09;12.88;;;8.55;;
26536;SDS011;14204;51.262;5.488;2023-04-03T02:41:35;12.15;;;8.63;;
26536;SDS011;14204;51.262;5.488;2023-04-03T02:44:01;13.60;;;8.63;;
26536;SDS011;14204;51.262;5.488;2023-04-03T02:46:27;10.90;;;7.55;;
26536;SDS011;14204;51.262;5.488;2023-04-03T02:48:53;11.45;;;8.80;;
26536;SDS011;14204;51.262;5.488;2023-04-03T02:51:18;10.82;;;8.88;;
26536;SDS011;14204;51.262;5.488;2023-04-03T02:53:44;12.60;;;8.32;;
26536;SDS011;14204;51.262;5.488;2023-04-03T02:56:10;13.38;;;8.25;;
26536;SDS011;14204;51.262;5.488;2023-04-03T02:58:36;13.02;;;7.90;;
26536;SDS011;14204;51.262;5.488;2023-04-03T03:01:01;18.33;;;8.95;;
26536;SDS011;14204;51.262;5.488;2023-04-03T03:03:27;13.02;;;9.57;;
26536;SDS011;14204;51.262;5.488;2023-04-03T03:08:31;12.18;;;9.20;;
26536;SDS011;14204;51.262;5.488;2023-04-03T03:10:57;15.48;;;9.95;;
26536;SDS011;14204;51.262;5.488;2023-04-03T03:13:23;13.85;;;10.27;;
26536;SDS011;14204;51.262;5.488;2023-04-03T03:15:49;14.50;;;9.70;;
26536;SDS011;14204;51.262;5.488;2023-04-03T03:18:15;15.85;;;10.18;;
26536;SDS011;14204;51.262;5.488;2023-04-03T03:20:40;14.27;;;9.77;;
26536;SDS011;14204;51.262;5.488;2023-04-03T03:23:06;14.75;;;10.82;;
26536;SDS011;14204;51.262;5.488;2023-04-03T03:25:32;14.65;;;9.68;;
26536;SDS011;14204;51.262;5.488;2023-04-03T03:27:57;13.75;;;10.00;;
26536;SDS011;14204;51.262;5.488;2023-04-03T03:30:23;12.18;;;9.43;;
26536;SDS011;14204;51.262;5.488;2023-04-03T03:32:48;17.55;;;9.35;;
26536;SDS011;14204;51.262;5.488;2023-04-03T03:35:14;17.25;;;9.63;;
26536;SDS011;14204;51.262;5.488;2023-04-03T03:37:40;16.42;;;10.52;;
26536;SDS011;14204;51.262;5.488;2023-04-03T03:40:06;15.93;;;10.18;;
26536;SDS011;14204;51.262;5.488;2023-04-03T03:42:32;14.35;;;9.63;;
26536;SDS011;14204;51.262;5.488;2023-04-03T03:44:57;13.30;;;9.85;;
26536;SDS011;14204;51.262;5.488;2023-04-03T03:47:23;14.02;;;10.02;;
26536;SDS011;14204;51.262;5.488;2023-04-03T03:49:49;16.55;;;10.73;;
26536;SDS011;14204;51.262;5.488;2023-04-03T03:52:14;14.20;;;9.15;;
26536;SDS011;14204;51.262;5.488;2023-04-03T03:54:40;13.93;;;10.02;;
26536;SDS011;14204;51.262;5.488;2023-04-03T03:57:06;16.63;;;10.60;;
26536;SDS011;14204;51.262;5.488;2023-04-03T03:59:31;14.63;;;10.70;;
26536;SDS011;14204;51.262;5.488;2023-04-03T04:01:57;17.17;;;10.88;;
26536;SDS011;14204;51.262;5.488;2023-04-03T04:04:22;15.25;;;10.55;;
26536;SDS011;14204;51.262;5.488;2023-04-03T04:06:48;13.57;;;10.27;;
26536;SDS011;14204;51.262;5.488;2023-04-03T04:09:13;16.20;;;10.70;;
26536;SDS011;14204;51.262;5.488;2023-04-03T04:11:39;15.77;;;10.52;;
26536;SDS011;14204;51.262;5.488;2023-04-03T04:14:06;14.40;;;9.85;;
26536;SDS011;14204;51.262;5.488;2023-04-03T04:16:32;14.60;;;10.50;;
26536;SDS011;14204;51.262;5.488;2023-04-03T04:18:57;13.63;;;9.48;;
26536;SDS011;14204;51.262;5.488;2023-04-03T04:21:23;13.43;;;9.85;;
26536;SDS011;14204;51.262;5.488;2023-04-03T04:23:49;26.58;;;10.82;;
26536;SDS011;14204;51.262;5.488;2023-04-03T04:26:14;14.60;;;9.98;;
26536;SDS011;14204;51.262;5.488;2023-04-03T04:28:40;15.32;;;10.15;;
26536;SDS011;14204;51.262;5.488;2023-04-03T04:31:06;13.50;;;9.93;;
26536;SDS011;14204;51.262;5.488;2023-04-03T04:33:31;11.23;;;8.70;;
26536;SDS011;14204;51.262;5.488;2023-04-03T04:35:57;12.38;;;8.57;;
26536;SDS011;14204;51.262;5.488;2023-04-03T04:38:22;12.88;;;9.30;;
26536;SDS011;14204;51.262;5.488;2023-04-03T04:40:48;17.52;;;8.93;;
26536;SDS011;14204;51.262;5.488;2023-04-03T04:43:14;12.45;;;8.57;;
26536;SDS011;14204;51.262;5.488;2023-04-03T04:45:40;15.77;;;8.90;;
26536;SDS011;14204;51.262;5.488;2023-04-03T04:48:06;16.75;;;10.82;;
26536;SDS011;14204;51.262;5.488;2023-04-03T04:50:32;19.42;;;10.27;;
26536;SDS011;14204;51.262;5.488;2023-04-03T04:52:58;12.82;;;9.18;;
26536;SDS011;14204;51.262;5.488;2023-04-03T04:55:23;15.57;;;9.95;;
26536;SDS011;14204;51.262;5.488;2023-04-03T04:57:49;15.27;;;9.63;;
26536;SDS011;14204;51.262;5.488;2023-04-03T05:00:15;14.32;;;9.80;;
26536;SDS011;14204;51.262;5.488;2023-04-03T05:02:41;18.83;;;10.38;;
26536;SDS011;14204;51.262;5.488;2023-04-03T05:05:07;13.75;;;9.13;;
26536;SDS011;14204;51.262;5.488;2023-04-03T05:07:33;13.02;;;8.75;;
26536;SDS011;14204;51.262;5.488;2023-04-03T05:10:02;13.20;;;8.75;;
26536;SDS011;14204;51.262;5.488;2023-04-03T05:12:28;14.43;;;9.15;;
26536;SDS011;14204;51.262;5.488;2023-04-03T05:14:54;13.45;;;9.77;;
26536;SDS011;14204;51.262;5.488;2023-04-03T05:17:20;17.35;;;9.48;;
26536;SDS011;14204;51.262;5.488;2023-04-03T05:19:45;11.15;;;9.25;;
26536;SDS011;14204;51.262;5.488;2023-04-03T05:22:11;14.77;;;9.95;;
26536;SDS011;14204;51.262;5.488;2023-04-03T05:24:37;14.80;;;9.45;;
26536;SDS011;14204;51.262;5.488;2023-04-03T05:27:03;13.93;;;9.05;;
26536;SDS011;14204;51.262;5.488;2023-04-03T05:29:29;16.00;;;8.68;;
26536;SDS011;14204;51.262;5.488;2023-04-03T05:31:55;14.82;;;8.93;;
26536;SDS011;14204;51.262;5.488;2023-04-03T05:34:20;15.45;;;8.82;;
26536;SDS011;14204;51.262;5.488;2023-04-03T05:36:46;14.38;;;8.52;;
26536;SDS011;14204;51.262;5.488;2023-04-03T05:39:12;14.07;;;8.90;;
26536;SDS011;14204;51.262;5.488;2023-04-03T05:41:37;16.63;;;8.85;;
26536;SDS011;14204;51.262;5.488;2023-04-03T05:44:03;13.00;;;8.38;;
26536;SDS011;14204;51.262;5.488;2023-04-03T05:46:29;14.95;;;7.78;;
26536;SDS011;14204;51.262;5.488;2023-04-03T05:48:54;12.13;;;7.47;;
26536;SDS011;14204;51.262;5.488;2023-04-03T05:51:24;17.95;;;8.02;;
26536;SDS011;14204;51.262;5.488;2023-04-03T05:53:56;11.45;;;7.53;;
26536;SDS011;14204;51.262;5.488;2023-04-03T05:56:42;11.55;;;6.28;;
26536;SDS011;14204;51.262;5.488;2023-04-03T05:59:08;11.40;;;7.25;;
26536;SDS011;14204;51.262;5.488;2023-04-03T06:01:34;13.27;;;7.22;;
26536;SDS011;14204;51.262;5.488;2023-04-03T06:04:00;10.05;;;7.05;;
26536;SDS011;14204;51.262;5.488;2023-04-03T06:06:25;13.38;;;7.90;;
26536;SDS011;14204;51.262;5.488;2023-04-03T06:09:07;11.27;;;6.45;;
26536;SDS011;14204;51.262;5.488;2023-04-03T06:11:33;17.15;;;7.03;;
26536;SDS011;14204;51.262;5.488;2023-04-03T06:13:58;11.73;;;6.85;;
26536;SDS011;14204;51.262;5.488;2023-04-03T06:16:25;10.68;;;6.28;;
26536;SDS011;14204;51.262;5.488;2023-04-03T06:18:51;12.32;;;6.03;;
26536;SDS011;14204;51.262;5.488;2023-04-03T06:21:16;12.27;;;6.03;;
26536;SDS011;14204;51.262;5.488;2023-04-03T06:23:42;6.88;;;4.35;;
26536;SDS011;14204;51.262;5.488;2023-04-03T06:26:08;9.73;;;5.70;;
26536;SDS011;14204;51.262;5.488;2023-04-03T06:28:33;14.25;;;5.82;;
26536;SDS011;14204;51.262;5.488;2023-04-03T06:30:59;7.35;;;4.63;;
26536;SDS011;14204;51.262;5.488;2023-04-03T06:33:25;11.88;;;4.90;;
26536;SDS011;14204;51.262;5.488;2023-04-03T06:35:55;12.00;;;5.03;;
26536;SDS011;14204;51.262;5.488;2023-04-03T06:38:24;10.40;;;4.78;;
26536;SDS011;14204;51.262;5.488;2023-04-03T06:40:50;9.77;;;4.93;;
26536;SDS011;14204;51.262;5.488;2023-04-03T06:43:16;11.82;;;4.68;;
26536;SDS011;14204;51.262;5.488;2023-04-03T06:45:42;10.60;;;4.65;;
26536;SDS011;14204;51.262;5.488;2023-04-03T06:48:08;15.48;;;5.05;;
26536;SDS011;14204;51.262;5.488;2023-04-03T06:50:34;8.75;;;4.55;;
26536;SDS011;14204;51.262;5.488;2023-04-03T06:53:00;11.00;;;4.55;;
26536;SDS011;14204;51.262;5.488;2023-04-03T06:55:26;8.15;;;4.10;;
26536;SDS011;14204;51.262;5.488;2023-04-03T06:57:51;8.52;;;4.57;;
26536;SDS011;14204;51.262;5.488;2023-04-03T07:00:17;10.98;;;4.57;;
26536;SDS011;14204;51.262;5.488;2023-04-03T07:02:44;7.57;;;3.90;;
26536;SDS011;14204;51.262;5.488;2023-04-03T07:05:10;8.02;;;4.55;;
26536;SDS011;14204;51.262;5.488;2023-04-03T07:07:36;8.73;;;3.40;;
26536;SDS011;14204;51.262;5.488;2023-04-03T07:10:03;6.38;;;3.40;;
26536;SDS011;14204;51.262;5.488;2023-04-03T07:12:29;13.18;;;5.07;;
26536;SDS011;14204;51.262;5.488;2023-04-03T07:14:55;12.40;;;3.95;;
26536;SDS011;14204;51.262;5.488;2023-04-03T07:17:21;12.48;;;4.47;;
26536;SDS011;14204;51.262;5.488;2023-04-03T07:19:46;11.35;;;4.15;;
26536;SDS011;14204;51.262;5.488;2023-04-03T07:22:12;10.52;;;4.60;;
26536;SDS011;14204;51.262;5.488;2023-04-03T07:24:38;8.85;;;4.75;;
26536;SDS011;14204;51.262;5.488;2023-04-03T07:27:04;15.30;;;4.43;;
26536;SDS011;14204;51.262;5.488;2023-04-03T07:29:29;11.70;;;4.80;;
26536;SDS011;14204;51.262;5.488;2023-04-03T07:31:55;10.13;;;4.22;;
26536;SDS011;14204;51.262;5.488;2023-04-03T07:34:21;13.90;;;4.60;;
26536;SDS011;14204;51.262;5.488;2023-04-03T07:36:47;10.15;;;3.65;;
26536;SDS011;14204;51.262;5.488;2023-04-03T07:39:12;9.93;;;4.00;;
26536;SDS011;14204;51.262;5.488;2023-04-03T07:41:38;10.00;;;3.42;;
26536;SDS011;14204;51.262;5.488;2023-04-03T07:44:04;7.15;;;3.63;;
26536;SDS011;14204;51.262;5.488;2023-04-03T07:46:30;7.70;;;4.03;;
26536;SDS011;14204;51.262;5.488;2023-04-03T07:48:56;11.43;;;4.13;;
26536;SDS011;14204;51.262;5.488;2023-04-03T07:51:22;13.20;;;3.35;;
26536;SDS011;14204;51.262;5.488;2023-04-03T07:53:49;14.85;;;3.65;;
26536;SDS011;14204;51.262;5.488;2023-04-03T07:56:16;9.43;;;3.17;;
26536;SDS011;14204;51.262;5.488;2023-04-03T07:58:42;8.25;;;3.58;;
26536;SDS011;14204;51.262;5.488;2023-04-03T08:01:07;11.65;;;3.50;;
26536;SDS011;14204;51.262;5.488;2023-04-03T08:03:34;10.25;;;3.10;;
26536;SDS011;14204;51.262;5.488;2023-04-03T08:06:01;8.70;;;2.92;;
26536;SDS011;14204;51.262;5.488;2023-04-03T08:08:29;11.90;;;3.78;;
26536;SDS011;14204;51.262;5.488;2023-04-03T08:10:55;9.32;;;3.22;;
26536;SDS011;14204;51.262;5.488;2023-04-03T08:13:23;11.63;;;3.20;;
26536;SDS011;14204;51.262;5.488;2023-04-03T08:15:48;6.90;;;2.85;;
26536;SDS011;14204;51.262;5.488;2023-04-03T08:18:14;6.75;;;2.78;;
26536;SDS011;14204;51.262;5.488;2023-04-03T08:20:41;10.93;;;2.80;;
26536;SDS011;14204;51.262;5.488;2023-04-03T08:23:07;8.65;;;2.85;;
26536;SDS011;14204;51.262;5.488;2023-04-03T08:25:36;6.95;;;2.60;;
26536;SDS011;14204;51.262;5.488;2023-04-03T08:28:03;5.50;;;2.65;;
26536;SDS011;14204;51.262;5.488;2023-04-03T08:30:29;9.52;;;2.85;;
26536;SDS011;14204;51.262;5.488;2023-04-03T08:32:55;10.10;;;2.88;;
26536;SDS011;14204;51.262;5.488;2023-04-03T08:35:21;6.50;;;2.60;;
26536;SDS011;14204;51.262;5.488;2023-04-03T08:37:46;9.63;;;2.60;;
26536;SDS011;14204;51.262;5.488;2023-04-03T08:40:13;6.28;;;2.30;;
26536;SDS011;14204;51.262;5.488;2023-04-03T08:42:43;8.40;;;2.83;;
26536;SDS011;14204;51.262;5.488;2023-04-03T08:48:13;6.95;;;2.47;;
26536;SDS011;14204;51.262;5.488;2023-04-03T08:50:44;9.80;;;2.10;;
26536;SDS011;14204;51.262;5.488;2023-04-03T08:53:16;7.05;;;2.25;;
26536;SDS011;14204;51.262;5.488;2023-04-03T08:55:45;5.90;;;2.20;;
26536;SDS011;14204;51.262;5.488;2023-04-03T08:58:16;5.55;;;2.10;;
26536;SDS011;14204;51.262;5.488;2023-04-03T09:00:54;4.25;;;2.17;;
26536;SDS011;14204;51.262;5.488;2023-04-03T09:03:24;5.88;;;2.40;;
26536;SDS011;14204;51.262;5.488;2023-04-03T09:06:03;13.18;;;2.85;;
26536;SDS011;14204;51.262;5.488;2023-04-03T09:08:37;4.45;;;2.25;;
26536;SDS011;14204;51.262;5.488;2023-04-03T09:11:23;4.07;;;1.95;;
26536;SDS011;14204;51.262;5.488;2023-04-03T09:19:36;3.35;;;2.17;;
26536;SDS011;14204;51.262;5.488;2023-04-03T09:22:28;6.90;;;2.70;;
26536;SDS011;14204;51.262;5.488;2023-04-03T09:25:04;5.07;;;1.90;;
26536;SDS011;14204;51.262;5.488;2023-04-03T09:27:38;3.33;;;1.90;;
26536;SDS011;14204;51.262;5.488;2023-04-03T09:30:04;4.65;;;1.83;;
26536;SDS011;14204;51.262;5.488;2023-04-03T09:32:34;3.83;;;1.80;;
26536;SDS011;14204;51.262;5.488;2023-04-03T09:35:03;4.15;;;1.80;;
26536;SDS011;14204;51.262;5.488;2023-04-03T09:37:38;3.65;;;1.40;;
26536;SDS011;14204;51.262;5.488;2023-04-03T09:40:27;6.53;;;1.95;;
26536;SDS011;14204;51.262;5.488;2023-04-03T09:42:57;4.07;;;1.67;;
26536;SDS011;14204;51.262;5.488;2023-04-03T09:45:31;3.30;;;1.08;;
26536;SDS011;14204;51.262;5.488;2023-04-03T09:56:01;1.67;;;0.90;;
26536;SDS011;14204;51.262;5.488;2023-04-03T09:58:32;7.00;;;1.10;;
26536;SDS011;14204;51.262;5.488;2023-04-03T10:01:03;3.17;;;1.25;;
26536;SDS011;14204;51.262;5.488;2023-04-03T10:06:02;3.40;;;1.35;;
26536;SDS011;14204;51.262;5.488;2023-04-03T10:08:32;2.55;;;0.93;;
26536;SDS011;14204;51.262;5.488;2023-04-03T10:11:13;2.03;;;1.15;;
26536;SDS011;14204;51.262;5.488;2023-04-03T10:13:59;2.72;;;1.30;;
26536;SDS011;14204;51.262;5.488;2023-04-03T10:16:38;4.30;;;1.10;;
26536;SDS011;14204;51.262;5.488;2023-04-03T10:19:36;3.55;;;1.30;;
26536;SDS011;14204;51.262;5.488;2023-04-03T10:27:53;2.65;;;0.90;;
26536;SDS011;14204;51.262;5.488;2023-04-03T10:30:24;1.98;;;1.10;;
26536;SDS011;14204;51.262;5.488;2023-04-03T10:32:58;2.15;;;1.05;;
26536;SDS011;14204;51.262;5.488;2023-04-03T10:46:59;5.25;;;1.25;;
26536;SDS011;14204;51.262;5.488;2023-04-03T10:52:20;2.90;;;1.20;;
26536;SDS011;14204;51.262;5.488;2023-04-03T10:57:23;3.42;;;1.58;;
26536;SDS011;14204;51.262;5.488;2023-04-03T10:59:55;2.95;;;1.38;;
26536;SDS011;14204;51.262;5.488;2023-04-03T11:02:30;3.58;;;1.48;;
26536;SDS011;14204;51.262;5.488;2023-04-03T11:05:02;5.28;;;1.50;;
26536;SDS011;14204;51.262;5.488;2023-04-03T11:07:37;4.60;;;1.60;;
26536;SDS011;14204;51.262;5.488;2023-04-03T11:10:10;5.55;;;1.65;;
26536;SDS011;14204;51.262;5.488;2023-04-03T11:12:46;4.35;;;1.38;;
26536;SDS011;14204;51.262;5.488;2023-04-03T11:15:24;5.25;;;1.60;;
26536;SDS011;14204;51.262;5.488;2023-04-03T11:17:58;3.83;;;1.50;;
26536;SDS011;14204;51.262;5.488;2023-04-03T11:20:31;4.22;;;1.50;;
26536;SDS011;14204;51.262;5.488;2023-04-03T11:23:03;3.97;;;1.58;;
26536;SDS011;14204;51.262;5.488;2023-04-03T11:25:32;7.68;;;2.08;;
26536;SDS011;14204;51.262;5.488;2023-04-03T11:28:03;6.60;;;2.22;;
26536;SDS011;14204;51.262;5.488;2023-04-03T11:33:17;4.20;;;1.40;;
26536;SDS011;14204;51.262;5.488;2023-04-03T11:36:00;2.67;;;1.58;;
26536;SDS011;14204;51.262;5.488;2023-04-03T11:38:44;4.00;;;1.23;;
26536;SDS011;14204;51.262;5.488;2023-04-03T11:41:11;2.45;;;1.40;;
26536;SDS011;14204;51.262;5.488;2023-04-03T11:46:22;1.67;;;1.00;;
26536;SDS011;14204;51.262;5.488;2023-04-03T12:16:07;3.15;;;1.10;;
26536;SDS011;14204;51.262;5.488;2023-04-03T12:21:15;4.78;;;1.00;;
26536;SDS011;14204;51.262;5.488;2023-04-03T12:26:31;1.75;;;1.10;;
26536;SDS011;14204;51.262;5.488;2023-04-03T12:29:33;3.15;;;1.20;;
26536;SDS011;14204;51.262;5.488;2023-04-03T12:40:24;1.50;;;0.75;;
26536;SDS011;14204;51.262;5.488;2023-04-03T12:46:07;2.03;;;0.90;;
26536;SDS011;14204;51.262;5.488;2023-04-03T12:48:57;1.45;;;0.90;;
26536;SDS011;14204;51.262;5.488;2023-04-03T12:54:26;3.13;;;1.20;;
26536;SDS011;14204;51.262;5.488;2023-04-03T12:57:08;2.67;;;1.10;;
26536;SDS011;14204;51.262;5.488;2023-04-03T12:59:38;2.78;;;1.27;;
26536;SDS011;14204;51.262;5.488;2023-04-03T13:02:10;4.57;;;1.15;;
26536;SDS011;14204;51.262;5.488;2023-04-03T13:04:57;2.28;;;0.98;;
26536;SDS011;14204;51.262;5.488;2023-04-03T13:07:25;3.03;;;1.10;;
26536;SDS011;14204;51.262;5.488;2023-04-03T13:10:00;4.45;;;1.30;;
26536;SDS011;14204;51.262;5.488;2023-04-03T13:12:52;1.17;;;0.90;;
26536;SDS011;14204;51.262;5.488;2023-04-03T13:15:24;2.97;;;1.10;;
26536;SDS011;14204;51.262;5.488;2023-04-03T13:17:55;3.22;;;1.30;;
26536;SDS011;14204;51.262;5.488;2023-04-03T13:25:15;2.30;;;1.00;;
26536;SDS011;14204;51.262;5.488;2023-04-03T13:27:42;1.17;;;0.82;;
26536;SDS011;14204;51.262;5.488;2023-04-03T13:30:23;2.40;;;1.27;;
26536;SDS011;14204;51.262;5.488;2023-04-03T13:32:56;4.30;;;1.15;;
26536;SDS011;14204;51.262;5.488;2023-04-03T13:35:28;3.10;;;1.10;;
26536;SDS011;14204;51.262;5.488;2023-04-03T13:38:06;4.53;;;1.05;;
26536;SDS011;14204;51.262;5.488;2023-04-03T13:40:52;4.93;;;1.85;;
26536;SDS011;14204;51.262;5.488;2023-04-03T13:43:40;2.60;;;1.02;;
26536;SDS011;14204;51.262;5.488;2023-04-03T13:48:37;2.90;;;1.50;;
26536;SDS011;14204;51.262;5.488;2023-04-03T13:59:05;4.97;;;1.45;;
26536;SDS011;14204;51.262;5.488;2023-04-03T14:01:44;4.28;;;1.50;;
26536;SDS011;14204;51.262;5.488;2023-04-03T14:06:45;3.58;;;1.48;;
26536;SDS011;14204;51.262;5.488;2023-04-03T14:09:12;4.00;;;1.55;;
26536;SDS011;14204;51.262;5.488;2023-04-03T14:11:39;6.30;;;1.88;;
26536;SDS011;14204;51.262;5.488;2023-04-03T14:14:10;4.75;;;1.33;;
26536;SDS011;14204;51.262;5.488;2023-04-03T14:16:47;3.25;;;1.50;;
26536;SDS011;14204;51.262;5.488;2023-04-03T14:19:23;4.38;;;1.52;;
26536;SDS011;14204;51.262;5.488;2023-04-03T14:21:54;3.60;;;1.73;;
26536;SDS011;14204;51.262;5.488;2023-04-03T14:24:21;2.28;;;1.30;;
26536;SDS011;14204;51.262;5.488;2023-04-03T14:26:48;5.90;;;1.98;;
26536;SDS011;14204;51.262;5.488;2023-04-03T14:29:16;4.63;;;1.35;;
26536;SDS011;14204;51.262;5.488;2023-04-03T14:31:42;4.07;;;1.88;;
26536;SDS011;14204;51.262;5.488;2023-04-03T14:34:12;5.28;;;1.70;;
26536;SDS011;14204;51.262;5.488;2023-04-03T14:36:39;2.60;;;1.58;;
26536;SDS011;14204;51.262;5.488;2023-04-03T14:39:07;5.72;;;2.13;;
26536;SDS011;14204;51.262;5.488;2023-04-03T14:41:34;2.42;;;1.38;;
26536;SDS011;14204;51.262;5.488;2023-04-03T14:44:00;5.60;;;1.60;;
26536;SDS011;14204;51.262;5.488;2023-04-03T14:46:28;3.38;;;1.63;;
26536;SDS011;14204;51.262;5.488;2023-04-03T14:48:57;3.47;;;1.85;;
26536;SDS011;14204;51.262;5.488;2023-04-03T14:51:24;7.53;;;1.80;;
26536;SDS011;14204;51.262;5.488;2023-04-03T14:53:50;5.28;;;1.67;;
26536;SDS011;14204;51.262;5.488;2023-04-03T14:56:18;5.45;;;1.50;;
26536;SDS011;14204;51.262;5.488;2023-04-03T14:58:48;4.07;;;1.52;;
26536;SDS011;14204;51.262;5.488;2023-04-03T15:01:16;3.78;;;2.08;;
26536;SDS011;14204;51.262;5.488;2023-04-03T15:03:42;3.42;;;1.50;;
26536;SDS011;14204;51.262;5.488;2023-04-03T15:06:11;2.50;;;1.55;;
26536;SDS011;14204;51.262;5.488;2023-04-03T15:08:38;3.13;;;1.55;;
26536;SDS011;14204;51.262;5.488;2023-04-03T15:11:06;3.17;;;1.38;;
26536;SDS011;14204;51.262;5.488;2023-04-03T15:13:33;3.60;;;1.40;;
26536;SDS011;14204;51.262;5.488;2023-04-03T15:15:59;4.60;;;1.70;;
26536;SDS011;14204;51.262;5.488;2023-04-03T15:18:26;3.05;;;1.50;;
26536;SDS011;14204;51.262;5.488;2023-04-03T15:20:53;3.40;;;1.40;;
26536;SDS011;14204;51.262;5.488;2023-04-03T15:23:20;7.20;;;2.20;;
26536;SDS011;14204;51.262;5.488;2023-04-03T15:25:50;5.53;;;1.98;;
26536;SDS011;14204;51.262;5.488;2023-04-03T15:30:57;4.78;;;1.70;;
26536;SDS011;14204;51.262;5.488;2023-04-03T15:33:23;4.20;;;1.90;;
26536;SDS011;14204;51.262;5.488;2023-04-03T15:35:49;4.38;;;1.70;;
26536;SDS011;14204;51.262;5.488;2023-04-03T15:38:15;4.82;;;1.42;;
26536;SDS011;14204;51.262;5.488;2023-04-03T15:40:41;3.08;;;1.23;;
26536;SDS011;14204;51.262;5.488;2023-04-03T15:43:07;5.43;;;1.60;;
26536;SDS011;14204;51.262;5.488;2023-04-03T15:45:33;3.40;;;1.60;;
26536;SDS011;14204;51.262;5.488;2023-04-03T15:48:01;2.63;;;1.70;;
26536;SDS011;14204;51.262;5.488;2023-04-03T15:50:28;4.40;;;1.77;;
26536;SDS011;14204;51.262;5.488;2023-04-03T15:52:54;5.07;;;1.50;;
26536;SDS011;14204;51.262;5.488;2023-04-03T15:55:21;2.53;;;1.27;;
26536;SDS011;14204;51.262;5.488;2023-04-03T15:57:47;3.05;;;1.45;;
26536;SDS011;14204;51.262;5.488;2023-04-03T16:00:13;4.50;;;1.58;;
26536;SDS011;14204;51.262;5.488;2023-04-03T16:02:39;2.65;;;1.42;;
26536;SDS011;14204;51.262;5.488;2023-04-03T16:05:06;3.95;;;1.23;;
26536;SDS011;14204;51.262;5.488;2023-04-03T16:07:32;3.85;;;1.40;;
26536;SDS011;14204;51.262;5.488;2023-04-03T16:09:58;1.65;;;1.15;;
26536;SDS011;14204;51.262;5.488;2023-04-03T16:12:23;3.45;;;1.33;;
26536;SDS011;14204;51.262;5.488;2023-04-03T16:14:49;6.43;;;1.70;;
26536;SDS011;14204;51.262;5.488;2023-04-03T16:17:16;3.00;;;1.55;;
26536;SDS011;14204;51.262;5.488;2023-04-03T16:19:42;5.20;;;1.67;;
26536;SDS011;14204;51.262;5.488;2023-04-03T16:22:08;4.15;;;1.60;;
26536;SDS011;14204;51.262;5.488;2023-04-03T16:24:33;3.42;;;1.63;;
26536;SDS011;14204;51.262;5.488;2023-04-03T16:27:00;2.53;;;1.30;;
26536;SDS011;14204;51.262;5.488;2023-04-03T16:29:26;4.07;;;1.70;;
26536;SDS011;14204;51.262;5.488;2023-04-03T16:31:52;4.43;;;1.52;;
26536;SDS011;14204;51.262;5.488;2023-04-03T16:34:18;8.65;;;2.65;;
26536;SDS011;14204;51.262;5.488;2023-04-03T16:36:43;5.47;;;1.80;;
26536;SDS011;14204;51.262;5.488;2023-04-03T16:39:09;4.35;;;1.50;;
26536;SDS011;14204;51.262;5.488;2023-04-03T16:41:35;4.03;;;1.50;;
26536;SDS011;14204;51.262;5.488;2023-04-03T16:44:01;3.92;;;1.50;;
26536;SDS011;14204;51.262;5.488;2023-04-03T16:46:27;5.35;;;1.38;;
26536;SDS011;14204;51.262;5.488;2023-04-03T16:48:53;5.78;;;2.00;;
26536;SDS011;14204;51.262;5.488;2023-04-03T16:51:18;3.08;;;1.30;;